Carmona, Texas
Current Conditions -  °F | °C
As of 4:53 PM on Friday 28 Nov 2014 (Local Time) from KLFK Reporting Station
Broken Clouds Broken Clouds  
Wind Chill: 19°   Ceiling: 5000
Heat Index: 19°   Visibility: 10mi
Dew Point: 11°   Wind: 8mph
Humidity: 60%   Direction: 160°SSE
Pressure: 30.16"   Gusts: NA
Location:  31.024°N, 94.7686°W
Report Text: KLFK 282253Z AUTO 16007KT 10SM BKN050 19/11 A3016 RMK AO2 SLP212 T01890111 $
Loading
Personal Weather Stations






























Interactive Weather Map New forecast layout! Learn more

10-Day Weather Forecast

Advertisements
Track Severe Weather on mobile